Clingman, North Carolina
Current Conditions -  °F | °C
As of 9:15 AM on Wednesday 26 Nov 2014 (Local Time) from KUKF Reporting Station
Light Rain Light Rain  
Wind Chill: 39°   Ceiling: 1900
Heat Index: 39°   Visibility: 10mi
Dew Point: 37°   Wind: 3mph
Humidity: 93%   Direction: 290°WNW
Pressure: 30.07"   Gusts: NA
Location:  36.1763°N, 80.9244°W
Report Text: KUKF 261415Z AUTO 29003KT 10SM -RA BKN019 OVC026 04/03 A3007 RMK AO2 P0004
Loading
Personal Weather Stations






























Interactive Weather Map New forecast layout! Learn more

10-Day Weather Forecast

Advertisements
Track Severe Weather on mobile